createdAt,value
2018-07-14T00:00:50.261Z,22.30
2018-07-14T00:03:20.342Z,22.30
2018-07-14T00:05:50.709Z,22.30
2018-07-14T00:08:21.224Z,22.20
2018-07-14T00:10:51.768Z,22.20
2018-07-14T00:13:21.909Z,22.20
2018-07-14T00:15:52.121Z,22.10
2018-07-14T00:18:23.330Z,22.10
2018-07-14T00:20:53.468Z,22.00
2018-07-14T00:23:24.109Z,22.10
2018-07-14T00:25:59.292Z,22.10
2018-07-14T00:28:29.760Z,22.10
2018-07-14T00:30:59.830Z,22.10
2018-07-14T00:33:31.645Z,22.10
2018-07-14T00:36:03.034Z,22.00
2018-07-14T00:38:33.373Z,22.00
2018-07-14T00:41:03.508Z,22.00
2018-07-14T00:43:33.776Z,21.90
2018-07-14T00:46:04.674Z,21.90
2018-07-14T00:48:35.437Z,21.80
2018-07-14T00:51:06.675Z,21.80
2018-07-14T00:53:36.850Z,21.70
2018-07-14T00:56:07.200Z,21.70
2018-07-14T00:58:37.572Z,21.70
2018-07-14T01:01:12.377Z,21.60
2018-07-14T01:03:43.363Z,21.60
2018-07-14T01:06:14.339Z,21.60
2018-07-14T01:08:44.770Z,21.50
2018-07-14T01:11:15.732Z,21.50
2018-07-14T01:13:45.993Z,21.50
2018-07-14T01:16:16.181Z,21.40
2018-07-14T01:18:49.539Z,21.40
2018-07-14T01:21:21.710Z,21.40
2018-07-14T01:23:52.004Z,21.40
2018-07-14T01:26:23.209Z,21.30
2018-07-14T01:28:53.745Z,21.30
2018-07-14T01:31:24.516Z,21.30
2018-07-14T01:33:55.988Z,21.30
2018-07-14T01:36:26.804Z,21.20
2018-07-14T01:38:57.545Z,21.20
2018-07-14T01:41:29.224Z,21.20
2018-07-14T01:43:59.521Z,21.20
2018-07-14T01:46:30.693Z,21.20
2018-07-14T01:49:01.401Z,21.10
2018-07-14T01:51:31.991Z,21.10
2018-07-14T01:54:02.459Z,21.10
2018-07-14T01:56:34.009Z,21.10
2018-07-14T01:59:04.305Z,21.00
2018-07-14T02:01:34.804Z,21.00
2018-07-14T02:04:05.061Z,21.00
2018-07-14T02:06:35.801Z,20.90
2018-07-14T02:09:07.340Z,20.90
2018-07-14T02:11:38.858Z,20.90
2018-07-14T02:14:09.419Z,20.80
2018-07-14T02:16:40.136Z,20.80
2018-07-14T02:19:10.189Z,20.70
2018-07-14T02:21:40.588Z,20.70
2018-07-14T02:24:11.295Z,20.60
2018-07-14T02:26:41.484Z,20.60
2018-07-14T02:29:13.350Z,20.60
2018-07-14T02:31:43.327Z,20.50
2018-07-14T02:34:13.661Z,20.50
2018-07-14T02:36:43.912Z,20.40
2018-07-14T02:39:14.278Z,20.40
2018-07-14T02:41:44.768Z,20.40
2018-07-14T02:44:15.087Z,20.30
2018-07-14T02:46:45.547Z,20.30
2018-07-14T02:49:15.571Z,20.20
2018-07-14T02:51:45.890Z,20.20
2018-07-14T02:54:16.111Z,20.20
2018-07-14T02:56:47.224Z,20.10
2018-07-14T02:59:18.032Z,20.10
2018-07-14T03:01:49.402Z,20.10
2018-07-14T03:04:20.848Z,20.00
2018-07-14T03:06:50.842Z,20.00
2018-07-14T03:09:22.173Z,20.00
2018-07-14T03:11:52.813Z,19.90
2018-07-14T03:14:23.651Z,19.90
2018-07-14T03:16:54.547Z,19.90
2018-07-14T03:19:24.895Z,19.80
2018-07-14T03:21:54.978Z,19.80
2018-07-14T03:24:25.235Z,19.80
2018-07-14T03:26:55.473Z,19.70
2018-07-14T03:29:26.725Z,19.70
2018-07-14T03:31:57.031Z,19.70
2018-07-14T03:34:27.522Z,19.60
2018-07-14T03:36:57.824Z,19.60
2018-07-14T03:39:29.297Z,19.60
2018-07-14T03:42:01.164Z,19.50
2018-07-14T03:44:31.719Z,19.50
2018-07-14T03:47:02.370Z,19.50
2018-07-14T03:49:33.287Z,19.40
2018-07-14T03:52:03.476Z,19.40
2018-07-14T03:54:33.875Z,19.40
2018-07-14T03:57:04.734Z,19.30
2018-07-14T03:59:34.556Z,19.30
2018-07-14T04:02:05.046Z,19.30
2018-07-14T04:04:35.115Z,19.30
2018-07-14T04:07:05.744Z,19.30
2018-07-14T04:09:36.291Z,19.20
2018-07-14T04:12:07.776Z,19.20
2018-07-14T04:14:38.930Z,19.20
2018-07-14T04:17:09.853Z,19.20
2018-07-14T04:19:40.167Z,19.20
2018-07-14T04:22:10.425Z,19.10
2018-07-14T04:24:41.080Z,19.10
2018-07-14T04:27:11.081Z,19.10
2018-07-14T04:29:41.429Z,19.10
2018-07-14T04:32:14.467Z,19.10
2018-07-14T04:34:44.586Z,19.10
2018-07-14T04:37:15.928Z,19.10
2018-07-14T04:39:46.756Z,19.20
2018-07-14T04:42:17.380Z,19.20
2018-07-14T04:44:47.900Z,19.20
2018-07-14T04:47:18.458Z,19.20
2018-07-14T04:49:49.135Z,19.20
2018-07-14T04:52:20.080Z,19.20
2018-07-14T04:54:50.843Z,19.20
2018-07-14T04:57:21.649Z,19.20
2018-07-14T04:59:51.768Z,19.30
2018-07-14T05:02:23.173Z,19.30
2018-07-14T05:04:54.139Z,19.30
2018-07-14T05:07:24.308Z,19.30
2018-07-14T05:09:54.425Z,19.30
2018-07-14T05:12:25.624Z,19.40
2018-07-14T05:14:56.896Z,19.40
2018-07-14T05:17:28.117Z,19.40
2018-07-14T05:19:59.598Z,19.40
2018-07-14T05:22:30.424Z,19.40
2018-07-14T05:25:00.600Z,19.40
2018-07-14T05:27:32.061Z,19.40
2018-07-14T05:30:02.457Z,19.40
2018-07-14T05:32:32.748Z,19.50
2018-07-14T05:35:03.198Z,19.60
2018-07-14T05:37:34.417Z,19.60
2018-07-14T05:40:05.753Z,19.60
2018-07-14T05:42:42.889Z,19.70
2018-07-14T05:45:13.362Z,19.70
2018-07-14T05:47:43.764Z,19.70
2018-07-14T05:50:14.590Z,19.80
2018-07-14T05:52:44.976Z,19.80
2018-07-14T05:55:15.680Z,19.90
2018-07-14T05:57:46.550Z,20.00
2018-07-14T06:00:16.940Z,20.10
2018-07-14T06:02:48.239Z,20.20
2018-07-14T06:05:19.090Z,20.30
2018-07-14T06:07:49.164Z,20.30
2018-07-14T06:10:19.670Z,20.40
2018-07-14T06:12:50.231Z,20.50
2018-07-14T06:15:20.828Z,20.70
2018-07-14T06:17:52.717Z,20.80
2018-07-14T06:20:23.405Z,20.90
2018-07-14T06:22:53.643Z,21.00
2018-07-14T06:25:23.945Z,21.10
2018-07-14T06:27:54.292Z,21.20
2018-07-14T06:30:24.408Z,21.20
2018-07-14T06:32:55.193Z,21.40
2018-07-14T06:35:25.648Z,21.50
2018-07-14T06:37:55.903Z,21.70
2018-07-14T06:40:26.513Z,21.90
2018-07-14T06:42:56.647Z,22.10
2018-07-14T06:45:26.909Z,22.20
2018-07-14T06:47:57.324Z,22.40
2018-07-14T06:50:27.509Z,22.60
2018-07-14T06:52:58.038Z,22.70
2018-07-14T06:55:30.242Z,22.80
2018-07-14T06:58:00.556Z,22.90
2018-07-14T07:00:31.045Z,23.00
2018-07-14T07:03:01.286Z,23.00
2018-07-14T07:05:31.969Z,23.10
2018-07-14T07:08:02.664Z,23.20
2018-07-14T07:10:33.184Z,23.30
2018-07-14T07:13:03.609Z,23.30
2018-07-14T07:15:33.812Z,23.40
2018-07-14T07:18:04.933Z,23.50
2018-07-14T07:20:35.365Z,23.60
2018-07-14T07:23:06.205Z,23.70
2018-07-14T07:25:36.930Z,23.80
2018-07-14T07:28:07.291Z,24.00
2018-07-14T07:30:40.182Z,24.20
2018-07-14T07:33:10.324Z,24.40
2018-07-14T07:35:40.909Z,24.60
2018-07-14T07:38:11.512Z,24.80
2018-07-14T07:40:41.555Z,24.90
2018-07-14T07:43:12.124Z,24.90
2018-07-14T07:45:42.815Z,24.90
2018-07-14T07:48:19.200Z,24.90
2018-07-14T07:50:49.652Z,24.90
2018-07-14T07:53:19.759Z,24.80
2018-07-14T07:55:50.033Z,24.70
2018-07-14T07:58:20.201Z,24.70
2018-07-14T08:00:51.137Z,24.70
2018-07-14T08:03:21.270Z,24.80
2018-07-14T08:05:51.575Z,24.80
2018-07-14T08:08:22.065Z,24.80
2018-07-14T08:10:52.277Z,24.90
2018-07-14T08:13:22.762Z,24.90
2018-07-14T08:15:56.624Z,24.90
2018-07-14T08:18:27.097Z,25.00
2018-07-14T08:20:57.412Z,25.00
2018-07-14T08:23:27.589Z,25.10
2018-07-14T08:25:57.981Z,25.20
2018-07-14T08:28:29.085Z,25.30
2018-07-14T08:30:59.311Z,25.30
2018-07-14T08:33:29.995Z,25.30
2018-07-14T08:36:00.597Z,25.40
2018-07-14T08:38:32.616Z,25.50
2018-07-14T08:41:02.834Z,25.50
2018-07-14T08:43:33.063Z,25.60
2018-07-14T08:46:03.424Z,25.60
2018-07-14T08:48:34.334Z,25.50
2018-07-14T08:51:04.436Z,25.50
2018-07-14T08:53:34.796Z,25.50
2018-07-14T08:56:06.868Z,25.40
2018-07-14T08:58:37.764Z,25.40
2018-07-14T09:01:09.454Z,25.40
2018-07-14T09:03:40.408Z,25.30
2018-07-14T09:06:17.709Z,25.30
2018-07-14T09:08:48.724Z,25.30
2018-07-14T09:11:19.662Z,25.20
2018-07-14T09:13:50.173Z,25.30
2018-07-14T09:16:20.780Z,25.30
2018-07-14T09:18:51.968Z,25.40
2018-07-14T09:21:22.924Z,25.40
2018-07-14T09:23:53.007Z,25.50
2018-07-14T09:26:24.261Z,25.60
2018-07-14T09:28:54.629Z,25.60
2018-07-14T09:31:25.215Z,25.60
2018-07-14T09:33:55.284Z,25.70
2018-07-14T09:36:25.620Z,25.70
2018-07-14T09:38:58.877Z,25.70
2018-07-14T09:41:30.294Z,25.70
2018-07-14T09:44:01.204Z,25.80
2018-07-14T09:46:32.983Z,25.80
2018-07-14T09:49:04.440Z,25.70
2018-07-14T09:51:35.105Z,25.80
2018-07-14T09:54:05.318Z,25.80
2018-07-14T09:56:35.366Z,25.80
2018-07-14T09:59:05.690Z,25.90
2018-07-14T10:01:35.830Z,26.00
2018-07-14T10:04:06.057Z,26.10
2018-07-14T10:06:36.534Z,26.20
2018-07-14T10:09:07.511Z,26.30
2018-07-14T10:11:37.674Z,26.50
2018-07-14T10:14:07.893Z,26.60
2018-07-14T10:16:39.346Z,26.80
2018-07-14T10:19:09.724Z,26.90
2018-07-14T10:21:40.019Z,27.10
2018-07-14T10:24:10.690Z,27.40
2018-07-14T10:26:41.237Z,27.50
2018-07-14T10:29:11.327Z,27.60
2018-07-14T10:31:41.698Z,27.70
2018-07-14T10:34:11.971Z,27.80
2018-07-14T10:36:42.397Z,27.90
2018-07-14T10:39:12.810Z,27.80
2018-07-14T10:41:43.094Z,28.10
2018-07-14T10:44:13.771Z,28.30
2018-07-14T10:46:44.126Z,28.50
2018-07-14T10:49:14.310Z,28.70
2018-07-14T10:51:45.715Z,28.70
2018-07-14T10:54:16.360Z,28.70
2018-07-14T10:56:47.428Z,28.60
2018-07-14T10:59:19.056Z,28.70
2018-07-14T11:01:49.862Z,28.80
2018-07-14T11:04:20.277Z,28.90
2018-07-14T11:06:50.685Z,29.10
2018-07-14T11:09:21.690Z,29.10
2018-07-14T11:11:52.109Z,29.10
2018-07-14T11:14:24.772Z,29.10
2018-07-14T11:16:55.074Z,29.20
2018-07-14T11:19:27.669Z,29.40
2018-07-14T11:21:58.241Z,29.60
2018-07-14T11:24:28.807Z,29.80
2018-07-14T11:26:59.359Z,29.90
2018-07-14T11:29:30.133Z,30.00
2018-07-14T11:32:00.453Z,29.80
2018-07-14T11:34:37.697Z,29.80
2018-07-14T11:37:08.780Z,29.80
2018-07-14T11:39:39.160Z,29.90
2018-07-14T11:42:09.895Z,30.10
2018-07-14T11:44:42.510Z,30.10
2018-07-14T11:47:12.875Z,30.00
2018-07-14T11:49:44.249Z,30.10
2018-07-14T11:52:14.521Z,30.10
2018-07-14T11:54:44.641Z,30.30
2018-07-14T11:57:14.934Z,30.40
2018-07-14T11:59:46.872Z,30.50
2018-07-14T12:02:17.871Z,30.50
2018-07-14T12:04:48.107Z,30.50
2018-07-14T12:07:18.477Z,30.40
2018-07-14T12:09:49.997Z,30.30
2018-07-14T12:12:20.573Z,30.30
2018-07-14T12:14:50.912Z,30.30
2018-07-14T12:17:22.014Z,30.30
2018-07-14T12:19:52.380Z,30.30
2018-07-14T12:22:22.593Z,30.30
2018-07-14T12:24:52.935Z,30.30
2018-07-14T12:27:23.610Z,30.30
2018-07-14T12:29:55.039Z,30.30
2018-07-14T12:32:25.423Z,30.10
2018-07-14T12:34:55.762Z,30.00
2018-07-14T12:37:25.751Z,29.90
2018-07-14T12:39:56.076Z,29.70
2018-07-14T12:42:26.864Z,29.60
2018-07-14T12:44:57.102Z,29.60
2018-07-14T12:47:28.278Z,29.70
2018-07-14T12:49:59.557Z,29.90
2018-07-14T12:52:29.894Z,30.00
2018-07-14T12:55:01.343Z,30.00
2018-07-14T12:57:31.588Z,30.10
2018-07-14T13:00:02.116Z,30.30
2018-07-14T13:02:32.357Z,30.50
2018-07-14T13:05:03.510Z,30.70
2018-07-14T13:07:34.744Z,30.90
2018-07-14T13:10:06.339Z,31.00
2018-07-14T13:12:37.220Z,31.20
2018-07-14T13:15:08.083Z,31.30
2018-07-14T13:17:39.640Z,31.20
2018-07-14T13:20:10.492Z,31.10
2018-07-14T13:22:40.717Z,31.00
2018-07-14T13:25:10.767Z,31.00
2018-07-14T13:27:41.389Z,31.20
2018-07-14T13:30:11.903Z,31.50
2018-07-14T13:32:42.172Z,31.60
2018-07-14T13:35:12.686Z,31.80
2018-07-14T13:37:43.166Z,32.00
2018-07-14T13:40:14.215Z,32.20
2018-07-14T13:42:46.433Z,32.30
2018-07-14T13:45:17.417Z,32.50
2018-07-14T13:47:48.999Z,32.70
2018-07-14T13:50:19.302Z,32.70
2018-07-14T13:52:49.721Z,32.80
2018-07-14T13:55:20.029Z,33.00
2018-07-14T13:57:50.773Z,33.30
2018-07-14T14:00:22.268Z,34.10
2018-07-14T14:02:52.991Z,34.80
2018-07-14T14:05:23.451Z,35.70
2018-07-14T14:07:54.021Z,36.60
2018-07-14T14:10:24.464Z,37.00
2018-07-14T14:12:54.743Z,36.90
2018-07-14T14:15:25.009Z,37.10
2018-07-14T14:17:56.433Z,37.80
2018-07-14T14:20:27.694Z,38.60
2018-07-14T14:22:58.074Z,39.50
2018-07-14T14:25:29.001Z,40.40
2018-07-14T14:27:59.369Z,41.20
2018-07-14T14:30:29.817Z,41.40
2018-07-14T14:33:01.252Z,41.40
2018-07-14T14:35:31.725Z,41.10
2018-07-14T14:38:02.119Z,40.90
2018-07-14T14:40:32.622Z,40.80
2018-07-14T14:43:02.958Z,41.10
2018-07-14T14:45:33.609Z,42.10
2018-07-14T14:48:04.829Z,43.20
2018-07-14T14:50:38.846Z,44.20
2018-07-14T14:53:09.487Z,43.60
2018-07-14T14:55:39.835Z,42.60
2018-07-14T14:58:10.492Z,41.40
2018-07-14T15:00:41.794Z,40.40
2018-07-14T15:03:12.107Z,39.50
2018-07-14T15:05:42.866Z,38.90
2018-07-14T15:08:13.419Z,38.20
2018-07-14T15:10:44.186Z,38.00
2018-07-14T15:13:14.258Z,38.30
2018-07-14T15:15:44.890Z,38.20
2018-07-14T15:18:15.161Z,37.90
2018-07-14T15:20:45.303Z,37.60
2018-07-14T15:23:15.831Z,37.20
2018-07-14T15:25:46.933Z,37.00
2018-07-14T15:28:17.245Z,37.70
2018-07-14T15:30:47.785Z,38.00
2018-07-14T15:33:18.174Z,38.00
2018-07-14T15:35:48.654Z,37.90
2018-07-14T15:38:18.797Z,37.40
2018-07-14T15:40:49.176Z,36.80
2018-07-14T15:43:19.264Z,36.20
2018-07-14T15:45:49.290Z,35.80
2018-07-14T15:48:25.999Z,35.50
2018-07-14T15:50:56.367Z,35.80
2018-07-14T15:53:26.569Z,37.30
2018-07-14T15:55:56.789Z,39.00
2018-07-14T15:58:27.030Z,40.40
2018-07-14T16:00:57.226Z,41.70
2018-07-14T16:03:27.865Z,42.70
2018-07-14T16:05:57.886Z,43.40
2018-07-14T16:08:28.238Z,43.60
2018-07-14T16:10:58.687Z,43.60
2018-07-14T16:13:28.824Z,43.80
2018-07-14T16:16:02.900Z,44.10
2018-07-14T16:18:32.983Z,44.20
2018-07-14T16:21:03.279Z,44.00
2018-07-14T16:23:34.477Z,44.20
2018-07-14T16:26:04.640Z,44.70
2018-07-14T16:28:34.992Z,44.80
2018-07-14T16:31:05.173Z,44.90
2018-07-14T16:33:35.172Z,44.70
2018-07-14T16:36:05.567Z,43.70
2018-07-14T16:38:35.897Z,42.40
2018-07-14T16:41:06.600Z,41.10
2018-07-14T16:43:36.774Z,40.00
2018-07-14T16:46:07.382Z,39.00
2018-07-14T16:48:38.011Z,38.20
2018-07-14T16:51:09.162Z,37.90
2018-07-14T16:53:39.869Z,37.70
2018-07-14T16:56:10.143Z,38.50
2018-07-14T16:58:40.505Z,39.60
2018-07-14T17:01:10.814Z,40.40
2018-07-14T17:03:41.158Z,41.10
2018-07-14T17:06:11.332Z,41.70
2018-07-14T17:08:42.454Z,42.20
2018-07-14T17:11:16.436Z,42.60
2018-07-14T17:13:47.069Z,43.10
2018-07-14T17:16:18.560Z,43.20
2018-07-14T17:18:48.897Z,43.50
2018-07-14T17:21:19.125Z,43.80
2018-07-14T17:23:50.334Z,44.20
2018-07-14T17:26:20.433Z,44.70
2018-07-14T17:28:51.563Z,45.10
2018-07-14T17:31:21.827Z,45.50
2018-07-14T17:33:52.188Z,45.70
2018-07-14T17:36:23.068Z,45.50
2018-07-14T17:38:53.801Z,45.40
2018-07-14T17:41:24.886Z,45.50
2018-07-14T17:43:56.919Z,45.50
2018-07-14T17:46:27.178Z,45.50
2018-07-14T17:48:58.329Z,45.00
2018-07-14T17:51:28.653Z,44.30
2018-07-14T17:53:58.872Z,43.70
2018-07-14T17:56:29.423Z,42.80
2018-07-14T17:59:00.309Z,41.80
2018-07-14T18:01:30.870Z,40.80
2018-07-14T18:04:01.894Z,39.80
2018-07-14T18:06:32.653Z,39.20
2018-07-14T18:09:03.004Z,38.80
2018-07-14T18:11:33.450Z,38.60
2018-07-14T18:14:11.986Z,38.50
2018-07-14T18:16:45.623Z,38.50
2018-07-14T18:19:23.072Z,38.70
2018-07-14T18:21:54.247Z,38.70
2018-07-14T18:24:25.800Z,38.80
2018-07-14T18:26:58.414Z,38.70
2018-07-14T18:29:29.315Z,38.60
2018-07-14T18:32:00.589Z,38.50
2018-07-14T18:34:32.211Z,38.30
2018-07-14T18:37:04.003Z,38.00
2018-07-14T18:39:35.407Z,37.60
2018-07-14T18:42:07.569Z,37.50
2018-07-14T18:44:45.605Z,37.40
2018-07-14T18:47:16.637Z,37.30
2018-07-14T18:49:47.031Z,37.10
2018-07-14T18:52:17.293Z,36.80
2018-07-14T18:54:47.770Z,36.60
2018-07-14T18:57:17.846Z,36.40
2018-07-14T18:59:47.993Z,36.00
2018-07-14T19:02:18.813Z,35.60
2018-07-14T19:04:49.196Z,35.30
2018-07-14T19:07:19.365Z,35.00
2018-07-14T19:09:49.492Z,34.80
2018-07-14T19:12:20.118Z,34.60
2018-07-14T19:14:50.351Z,34.30
2018-07-14T19:17:20.562Z,33.70
2018-07-14T19:19:50.698Z,33.10
2018-07-14T19:22:22.047Z,32.50
2018-07-14T19:24:52.183Z,31.90
2018-07-14T19:27:22.527Z,31.50
2018-07-14T19:29:53.182Z,31.00
2018-07-14T19:32:26.429Z,30.60
2018-07-14T19:34:56.846Z,30.20
2018-07-14T19:37:27.448Z,29.80
2018-07-14T19:39:58.717Z,29.50
2018-07-14T19:42:29.619Z,29.20
2018-07-14T19:45:00.239Z,28.90
2018-07-14T19:47:30.425Z,28.60
2018-07-14T19:50:00.468Z,28.40
2018-07-14T19:52:30.657Z,28.20
2018-07-14T19:55:00.890Z,28.10
2018-07-14T19:57:31.379Z,27.90
2018-07-14T20:00:01.618Z,27.80
2018-07-14T20:02:32.095Z,27.60
2018-07-14T20:05:02.091Z,27.50
2018-07-14T20:07:32.655Z,27.40
2018-07-14T20:10:04.414Z,27.20
2018-07-14T20:12:34.898Z,27.10
2018-07-14T20:15:07.191Z,27.00
2018-07-14T20:17:37.955Z,26.90
2018-07-14T20:20:10.232Z,26.80
2018-07-14T20:22:40.838Z,26.70
2018-07-14T20:25:11.196Z,26.50
2018-07-14T20:27:42.071Z,26.40
2018-07-14T20:30:13.078Z,26.30
2018-07-14T20:32:43.852Z,26.10
2018-07-14T20:35:14.420Z,26.00
2018-07-14T20:37:45.169Z,25.90
2018-07-14T20:40:15.629Z,25.80
2018-07-14T20:42:45.941Z,25.70
2018-07-14T20:45:16.705Z,25.60
2018-07-14T20:47:46.952Z,25.50
2018-07-14T20:50:17.861Z,25.40
2018-07-14T20:52:48.062Z,25.30
2018-07-14T20:55:18.356Z,25.30
2018-07-14T20:57:48.727Z,25.20
2018-07-14T21:00:19.038Z,25.10
2018-07-14T21:02:49.321Z,25.00
2018-07-14T21:05:19.551Z,24.90
2018-07-14T21:07:50.439Z,24.80
2018-07-14T21:10:20.284Z,24.70
2018-07-14T21:12:50.881Z,24.70
2018-07-14T21:15:22.106Z,24.60
2018-07-14T21:17:52.433Z,24.50
2018-07-14T21:20:22.960Z,24.50
2018-07-14T21:22:54.284Z,24.40
2018-07-14T21:25:25.063Z,24.30
2018-07-14T21:27:55.315Z,24.30
2018-07-14T21:30:25.741Z,24.20
2018-07-14T21:32:55.933Z,24.10
2018-07-14T21:35:26.390Z,24.10
2018-07-14T21:37:56.638Z,24.00
2018-07-14T21:40:26.831Z,24.00
2018-07-14T21:42:57.262Z,23.90
2018-07-14T21:45:27.965Z,23.80
2018-07-14T21:47:58.221Z,23.80
2018-07-14T21:50:28.279Z,23.70
2018-07-14T21:52:58.583Z,23.70
2018-07-14T21:55:28.860Z,23.60
2018-07-14T21:57:59.312Z,23.50
2018-07-14T22:00:35.680Z,23.50
2018-07-14T22:03:07.356Z,23.40
2018-07-14T22:05:37.713Z,23.40
2018-07-14T22:08:08.746Z,23.30
2018-07-14T22:10:39.131Z,23.30
2018-07-14T22:13:10.400Z,23.20
2018-07-14T22:15:41.632Z,23.20
2018-07-14T22:18:13.898Z,23.10
2018-07-14T22:20:44.871Z,23.10
2018-07-14T22:23:15.449Z,23.00
2018-07-14T22:25:46.852Z,22.90
2018-07-14T22:28:17.921Z,22.90
2018-07-14T22:30:49.720Z,22.90
2018-07-14T22:33:21.099Z,22.80
2018-07-14T22:35:51.625Z,22.80
2018-07-14T22:38:28.366Z,22.80
2018-07-14T22:40:58.970Z,22.70
2018-07-14T22:43:29.491Z,22.70
2018-07-14T22:45:59.749Z,22.60
2018-07-14T22:48:31.391Z,22.60
2018-07-14T22:51:01.912Z,22.60
2018-07-14T22:53:32.905Z,22.60
2018-07-14T22:56:03.943Z,22.50
2018-07-14T22:58:34.671Z,22.50
2018-07-14T23:01:04.816Z,22.40
2018-07-14T23:03:37.813Z,22.40
2018-07-14T23:06:07.610Z,22.30
2018-07-14T23:08:38.045Z,22.20
2018-07-14T23:11:08.684Z,22.20
2018-07-14T23:13:39.878Z,22.10
2018-07-14T23:16:10.602Z,22.10
2018-07-14T23:18:41.836Z,22.00
2018-07-14T23:21:12.163Z,22.00
2018-07-14T23:23:43.222Z,22.00
2018-07-14T23:26:13.278Z,21.90
2018-07-14T23:28:43.841Z,21.90
2018-07-14T23:31:14.114Z,21.90
2018-07-14T23:33:44.673Z,21.80
2018-07-14T23:36:15.231Z,21.80
2018-07-14T23:38:45.742Z,21.70
2018-07-14T23:41:16.860Z,21.70
2018-07-14T23:43:49.409Z,21.70
2018-07-14T23:46:19.899Z,21.60
2018-07-14T23:48:51.264Z,21.60
2018-07-14T23:51:21.971Z,21.50
2018-07-14T23:53:52.317Z,21.50
2018-07-14T23:56:23.458Z,21.40
2018-07-14T23:58:53.736Z,21.40
